Time;durP1;ratioP1;P1;durP2;ratioP2;P2;SDS_P1;SDS_P2;PMS_P1;PMS_P2;Temp;Humidity;BMP_temperature;BMP_pressure;BME280_temperature;BME280_humidity;BME280_pressure;Samples;Min_cycle;Max_cycle;Signal;HPM_P1;HPM_P2
2024/03/07 00:01:00;;;;;;;36.10;18.38;;;256.80;2252.80;;;;;;5066111;28;20044;-74
2024/03/07 00:03:25;;;;;;;39.17;20.77;;;256.80;2252.80;;;;;;5071430;28;20013;-74
2024/03/07 00:05:51;;;;;;;41.83;20.52;;;256.60;2252.80;;;;;;5066735;28;20031;-74
2024/03/07 00:08:17;;;;;;;35.17;20.42;;;256.50;2252.80;;;;;;5066071;28;20107;-73
2024/03/07 00:10:44;;;;;;;38.05;19.70;;;256.50;2252.80;;;;;;5074612;28;20119;-74
2024/03/07 00:13:10;;;;;;;37.03;19.83;;;256.50;2252.80;;;;;;5071440;28;20025;-75
2024/03/07 00:15:36;;;;;;;43.63;19.98;;;256.50;2252.80;;;;;;5070083;28;20029;-74
2024/03/07 00:18:02;;;;;;;38.13;19.52;;;256.50;2252.80;;;;;;5071400;28;20104;-73
2024/03/07 00:20:28;;;;;;;42.22;20.13;;;256.50;2252.80;;;;;;5072352;28;20036;-74
2024/03/07 00:22:54;;;;;;;37.40;19.60;;;256.50;2252.80;;;;;;5072961;28;20081;-74
2024/03/07 00:25:19;;;;;;;34.75;18.63;;;256.50;2252.80;;;;;;5073315;28;20025;-75
2024/03/07 00:27:45;;;;;;;37.50;18.35;;;256.50;2252.80;;;;;;5074863;28;20028;-74
2024/03/07 00:30:13;;;;;;;39.80;20.15;;;256.40;1996.80;;;;;;5084825;28;20055;-75
2024/03/07 00:32:40;;;;;;;38.80;18.83;;;256.20;2252.80;;;;;;5072150;28;20045;-74
2024/03/07 00:35:09;;;;;;;35.38;18.08;;;256.30;2252.80;;;;;;5069340;28;20024;-75
2024/03/07 00:37:35;;;;;;;33.83;17.35;;;256.20;2048.00;;;;;;5071827;28;20032;-74
2024/03/07 00:40:00;;;;;;;35.22;18.15;;;256.30;2252.80;;;;;;5071953;28;20457;-74
2024/03/07 00:42:27;;;;;;;32.13;17.83;;;256.40;2252.80;;;;;;5071609;28;20086;-74
2024/03/07 00:44:53;;;;;;;30.95;17.27;;;256.40;2252.80;;;;;;5081084;28;20016;-75
2024/03/07 00:47:19;;;;;;;33.80;16.50;;;256.30;2252.80;;;;;;5072382;28;20032;-74
2024/03/07 00:49:48;;;;;;;40.30;17.92;;;256.40;2252.80;;;;;;5073376;28;20036;-74
2024/03/07 00:52:15;;;;;;;30.73;17.17;;;256.30;2252.80;;;;;;5079106;28;20107;-74
2024/03/07 00:54:41;;;;;;;30.23;16.58;;;256.30;2252.80;;;;;;5077614;28;20400;-74
2024/03/07 00:57:07;;;;;;;32.85;17.10;;;256.20;2252.80;;;;;;5077813;28;20032;-73
2024/03/07 00:59:33;;;;;;;33.15;16.10;;;256.20;2252.80;;;;;;5086198;28;20050;-74
2024/03/07 01:01:59;;;;;;;36.58;18.30;;;256.20;2252.80;;;;;;5077998;28;20113;-74
2024/03/07 01:04:30;;;;;;;34.42;18.20;;;256.20;2252.80;;;;;;5073924;28;20020;-74
2024/03/07 01:06:57;;;;;;;33.63;16.75;;;256.20;2252.80;;;;;;5069517;28;20108;-74
2024/03/07 01:09:23;;;;;;;35.30;17.45;;;256.10;2252.80;;;;;;5081456;28;20013;-74
2024/03/07 01:11:50;;;;;;;31.92;16.55;;;256.40;2252.80;;;;;;5069858;28;20028;-75
2024/03/07 01:14:16;;;;;;;34.42;16.10;;;256.30;2252.80;;;;;;5084186;28;20028;-74
2024/03/07 01:16:41;;;;;;;31.23;16.27;;;256.20;2252.80;;;;;;5073783;28;20039;-74
2024/03/07 01:19:08;;;;;;;;;;;256.20;2252.80;;;;;;5074671;28;20035;-74
2024/03/07 01:21:34;;;;;;;37.03;17.75;;;256.30;2252.80;;;;;;5068010;28;20384;-74
2024/03/07 01:24:01;;;;;;;30.10;15.52;;;256.30;2252.80;;;;;;5077885;28;20059;-74
2024/03/07 01:26:33;;;;;;;30.25;15.65;;;256.40;2252.80;;;;;;5076129;28;20055;-75
2024/03/07 01:28:59;;;;;;;36.72;15.48;;;256.40;2252.80;;;;;;5077113;28;20048;-74
2024/03/07 01:31:25;;;;;;;32.03;16.17;;;256.40;2252.80;;;;;;5076134;28;20473;-74
2024/03/07 01:33:51;;;;;;;31.60;16.02;;;256.50;2252.80;;;;;;5076353;28;20104;-77
2024/03/07 01:36:18;;;;;;;34.70;17.10;;;256.60;2252.80;;;;;;5076140;28;20029;-74
2024/03/07 01:38:44;;;;;;;29.35;17.15;;;256.80;2252.80;;;;;;5075011;28;20066;-74
2024/03/07 01:41:10;;;;;;;29.33;17.50;;;281.60;2278.40;;;;;;5076168;28;20543;-75
2024/03/07 01:43:36;;;;;;;32.88;15.93;;;281.80;2278.40;;;;;;5076368;28;20052;-74
2024/03/07 01:46:02;;;;;;;36.60;18.38;;;281.70;2278.40;;;;;;5074998;28;20355;-74
2024/03/07 01:48:29;;;;;;;29.17;16.35;;;281.80;2278.40;;;;;;5076126;28;20024;-74
2024/03/07 01:50:55;;;;;;;29.08;15.95;;;281.90;2278.40;;;;;;5075781;28;20024;-74
2024/03/07 01:53:22;;;;;;;32.08;17.42;;;282.00;2278.40;;;;;;5075993;28;20100;-75
2024/03/07 01:55:50;;;;;;;32.78;16.67;;;282.20;2278.40;;;;;;5075802;28;20021;-74
2024/03/07 01:58:19;;;;;;;32.95;17.10;;;282.00;2278.40;;;;;;5075924;28;20062;-74
2024/03/07 02:00:45;;;;;;;29.38;16.08;;;282.10;2278.40;;;;;;5072121;28;20036;-74
2024/03/07 02:03:11;;;;;;;29.83;16.92;;;282.10;2278.40;;;;;;5075799;28;20024;-74
2024/03/07 02:05:36;;;;;;;29.63;17.63;;;282.20;2278.40;;;;;;5074639;28;20044;-74
2024/03/07 02:08:03;;;;;;;30.48;17.42;;;282.30;2278.40;;;;;;5075933;28;20416;-75
2024/03/07 02:10:28;;;;;;;29.35;16.40;;;282.40;2278.40;;;;;;5075329;28;20016;-74
2024/03/07 02:12:54;;;;;;;28.42;15.15;;;282.30;2278.40;;;;;;5074264;28;20028;-74
2024/03/07 02:15:20;;;;;;;31.50;16.80;;;282.30;2278.40;;;;;;5075584;28;20381;-76
2024/03/07 02:17:46;;;;;;;28.63;16.13;;;282.20;2278.40;;;;;;5075681;28;20465;-75
2024/03/07 02:20:13;;;;;;;27.73;15.82;;;282.10;2278.40;;;;;;5075070;28;20473;-75
2024/03/07 02:22:39;;;;;;;27.10;15.95;;;282.20;2278.40;;;;;;5075454;28;20039;-75
2024/03/07 02:25:06;;;;;;;30.80;16.60;;;282.20;2278.40;;;;;;5074034;28;20023;-74
2024/03/07 02:27:32;;;;;;;26.98;13.63;;;282.20;2278.40;;;;;;5074040;28;20025;-74
2024/03/07 02:29:58;;;;;;;32.15;15.63;;;282.20;2278.40;;;;;;5075019;28;20135;-74
2024/03/07 02:32:23;;;;;;;33.05;15.98;;;282.20;2278.40;;;;;;5075318;28;20020;-74
2024/03/07 02:34:49;;;;;;;27.42;15.05;;;282.20;2278.40;;;;;;5074968;28;20024;-74
2024/03/07 02:37:15;;;;;;;27.95;15.25;;;282.20;2278.40;;;;;;5073665;28;20036;-74
2024/03/07 02:39:41;;;;;;;28.33;16.50;;;282.30;2278.40;;;;;;5075039;28;20031;-75
2024/03/07 02:42:07;;;;;;;29.45;14.82;;;282.40;2278.40;;;;;;5074948;28;20116;-73
2024/03/07 02:44:32;;;;;;;28.30;14.98;;;282.20;2278.40;;;;;;5074825;28;20457;-74
2024/03/07 02:46:58;;;;;;;29.83;15.88;;;282.30;2278.40;;;;;;5074955;28;20469;-75
2024/03/07 02:49:24;;;;;;;24.77;13.85;;;282.40;2278.40;;;;;;5074796;28;20031;-74
2024/03/07 02:51:50;;;;;;;25.35;14.85;;;282.30;2278.40;;;;;;5074539;28;20028;-74
2024/03/07 02:54:16;;;;;;;25.10;14.52;;;282.10;2278.40;;;;;;5074571;28;20017;-74
2024/03/07 02:56:41;;;;;;;25.90;13.88;;;282.10;2278.40;;;;;;5086284;28;20118;-74
2024/03/07 02:59:07;;;;;;;25.23;14.73;;;282.00;2278.40;;;;;;5076208;28;20043;-74
2024/03/07 03:01:33;;;;;;;22.10;13.85;;;282.00;2278.40;;;;;;5074651;28;20082;-74
2024/03/07 03:03:59;;;;;;;;;;;281.90;2278.40;;;;;;5073709;28;20036;-74
2024/03/07 03:06:24;;;;;;;17.98;10.00;;;281.90;2278.40;;;;;;5074365;28;20430;-74
2024/03/07 03:08:50;;;;;;;25.42;14.10;;;281.90;2278.40;;;;;;5074361;28;20107;-74
2024/03/07 03:11:16;;;;;;;;;;;281.90;2278.40;;;;;;5074979;28;20054;-74
2024/03/07 03:13:42;;;;;;;20.98;12.73;;;281.90;2278.40;;;;;;5074079;28;19911;-74
2024/03/07 03:16:09;;;;;;;23.98;13.77;;;281.80;2278.40;;;;;;5073297;28;20420;-74
2024/03/07 03:18:35;;;;;;;24.08;13.75;;;281.70;2278.40;;;;;;5074216;28;20020;-74
2024/03/07 03:21:02;;;;;;;23.25;12.80;;;281.90;2278.40;;;;;;5073002;28;20048;-74
2024/03/07 03:23:31;;;;;;;22.63;13.00;;;281.90;2278.40;;;;;;5073850;28;20032;-74
2024/03/07 03:25:57;;;;;;;22.02;13.85;;;282.00;2278.40;;;;;;5074122;28;20087;-74
2024/03/07 03:28:23;;;;;;;22.80;12.68;;;282.00;2278.40;;;;;;5073661;28;20473;-74
2024/03/07 03:30:53;;;;;;;25.55;14.73;;;281.90;2278.40;;;;;;5072512;28;20524;-74
2024/03/07 03:33:20;;;;;;;20.80;12.95;;;281.90;2278.40;;;;;;5073735;28;20095;-74
2024/03/07 03:35:46;;;;;;;18.83;11.00;;;281.80;2278.40;;;;;;5073912;28;20109;-74
2024/03/07 03:38:13;;;;;;;18.98;11.15;;;281.70;2278.40;;;;;;5073662;28;20535;-76
2024/03/07 03:40:39;;;;;;;21.00;12.40;;;281.70;2278.40;;;;;;5073712;28;20044;-74
2024/03/07 03:43:05;;;;;;;23.17;13.38;;;256.90;2252.80;;;;;;5073601;28;20023;-74
2024/03/07 03:45:34;;;;;;;22.33;12.77;;;256.90;2252.80;;;;;;5073987;28;20020;-75
2024/03/07 03:48:00;;;;;;;18.23;11.82;;;256.90;2252.80;;;;;;5073627;28;20028;-73
2024/03/07 03:50:26;;;;;;;19.25;12.25;;;256.80;2252.80;;;;;;5072390;28;20025;-76
2024/03/07 03:52:52;;;;;;;23.40;12.85;;;256.80;2252.80;;;;;;5073320;28;20095;-73
2024/03/07 03:55:18;;;;;;;20.35;10.90;;;256.70;2252.80;;;;;;5073676;28;20017;-75
2024/03/07 03:57:44;;;;;;;19.15;12.10;;;256.60;2252.80;;;;;;5073529;28;20082;-75
2024/03/07 04:00:13;;;;;;;19.35;11.35;;;256.60;2252.80;;;;;;5073261;28;20024;-74
2024/03/07 04:02:44;;;;;;;22.35;12.07;;;256.50;2252.80;;;;;;5073583;28;20043;-74
2024/03/07 04:05:13;;;;;;;21.25;11.63;;;256.50;2252.80;;;;;;5073265;28;20422;-74
2024/03/07 04:07:39;;;;;;;16.65;11.02;;;256.40;2252.80;;;;;;5073528;28;20044;-74
2024/03/07 04:10:08;;;;;;;22.35;11.90;;;256.20;2252.80;;;;;;5073235;28;20033;-74
2024/03/07 04:12:36;;;;;;;21.60;10.80;;;256.10;2252.80;;;;;;5073492;28;20029;-74
2024/03/07 04:15:09;;;;;;;19.35;10.98;;;256.00;2252.80;;;;;;5072292;28;20025;-75
2024/03/07 04:17:35;;;;;;;18.10;10.77;;;231.30;2252.80;;;;;;5073333;28;20489;-73
2024/03/07 04:20:06;;;;;;;17.10;10.38;;;231.30;2252.80;;;;;;5072983;28;20033;-74
2024/03/07 04:22:35;;;;;;;22.98;10.65;;;231.20;2252.80;;;;;;5071849;28;20044;-75
2024/03/07 04:25:02;;;;;;;18.40;11.18;;;231.10;2252.80;;;;;;5073099;28;20521;-74
2024/03/07 04:27:28;;;;;;;20.27;10.80;;;231.10;2252.80;;;;;;5072739;28;20454;-74
2024/03/07 04:29:54;;;;;;;19.17;9.70;;;231.10;2252.80;;;;;;5071908;28;20116;-74
2024/03/07 04:32:21;;;;;;;17.67;9.85;;;231.10;2252.80;;;;;;5073088;28;20107;-75
2024/03/07 04:34:46;;;;;;;15.85;8.63;;;231.00;2252.80;;;;;;5072919;28;20024;-74
2024/03/07 04:37:12;;;;;;;17.20;9.73;;;230.90;2252.80;;;;;;5072953;28;20066;-74
2024/03/07 04:39:40;;;;;;;;;;;230.80;2252.80;;;;;;5073340;28;20025;-73
2024/03/07 04:42:07;;;;;;;14.48;8.65;;;230.90;2252.80;;;;;;5071733;28;19912;-74
2024/03/07 04:44:39;;;;;;;14.93;8.93;;;230.80;2252.80;;;;;;5073098;28;20461;-74
2024/03/07 04:47:05;;;;;;;16.13;8.73;;;230.80;2252.80;;;;;;5072957;28;20029;-75
2024/03/07 04:49:32;;;;;;;18.98;10.45;;;230.70;2252.80;;;;;;5072640;28;20091;-74
2024/03/07 04:52:00;;;;;;;19.25;10.07;;;230.80;2252.80;;;;;;5071722;28;20032;-74
2024/03/07 04:54:27;;;;;;;21.85;10.60;;;230.80;2252.80;;;;;;5072208;28;20012;-73
2024/03/07 04:56:53;;;;;;;18.45;10.57;;;230.80;2252.80;;;;;;5068900;28;20025;-74
2024/03/07 04:59:20;;;;;;;15.77;10.27;;;230.90;2252.80;;;;;;5076288;28;20059;-74
2024/03/07 05:01:48;;;;;;;17.95;10.40;;;230.90;2252.80;;;;;;5080511;28;20047;-74
2024/03/07 05:04:14;;;;;;;17.42;9.68;;;230.90;2252.80;;;;;;5062818;28;20108;-74
2024/03/07 05:06:41;;;;;;;16.35;10.98;;;230.90;2252.80;;;;;;5066314;28;20028;-73
2024/03/07 05:09:08;;;;;;;16.80;10.15;;;230.90;2252.80;;;;;;5065130;28;20085;-73
2024/03/07 05:11:35;;;;;;;18.60;11.00;;;230.90;2252.80;;;;;;5076190;28;20081;-72
2024/03/07 05:14:02;;;;;;;18.83;10.90;;;231.00;2252.80;;;;;;5073362;28;20027;-73
2024/03/07 05:16:29;;;;;;;14.98;11.30;;;230.90;2252.80;;;;;;5074061;28;20528;-72
2024/03/07 05:18:59;;;;;;;17.35;9.95;;;230.90;2252.80;;;;;;5066186;28;20077;-72
2024/03/07 05:24:01;;;;;;;19.45;9.30;;;231.00;2252.80;;;;;;5089345;28;20024;-73
2024/03/07 05:26:27;;;;;;;13.95;8.32;;;230.90;2252.80;;;;;;5064194;28;20201;-73
2024/03/07 05:28:56;;;;;;;14.65;8.77;;;230.90;2252.80;;;;;;5071811;28;20023;-73
2024/03/07 05:31:21;;;;;;;14.65;9.07;;;230.90;2252.80;;;;;;5067287;28;20406;-73
2024/03/07 05:33:48;;;;;;;14.30;9.05;;;230.90;2252.80;;;;;;5060943;28;20036;-73
2024/03/07 05:36:14;;;;;;;15.20;9.05;;;230.90;2252.80;;;;;;5067414;28;20107;-79
2024/03/07 05:38:44;;;;;;;16.08;9.23;;;230.80;2252.80;;;;;;5072007;28;20017;-72
2024/03/07 05:41:12;;;;;;;14.30;8.70;;;230.90;2252.80;;;;;;5064530;28;20504;-73
2024/03/07 05:43:38;;;;;;;17.13;8.98;;;230.80;2252.80;;;;;;5068518;28;20021;-72
2024/03/07 05:46:05;;;;;;;14.73;8.45;;;230.80;2252.80;;;;;;5081313;28;20024;-74
2024/03/07 05:48:31;;;;;;;20.17;10.80;;;230.90;2252.80;;;;;;5066889;28;20019;-73
2024/03/07 05:50:57;;;;;;;15.23;8.43;;;230.80;2252.80;;;;;;5077037;28;20103;-72
2024/03/07 05:53:23;;;;;;;13.93;8.52;;;230.70;2252.80;;;;;;5082638;28;20057;-75
2024/03/07 05:55:49;;;;;;;15.00;8.73;;;230.70;2252.80;;;;;;5069886;28;20061;-73
2024/03/07 05:58:15;;;;;;;15.38;8.48;;;230.70;2252.80;;;;;;5072296;28;20052;-74
2024/03/07 06:00:46;;;;;;;12.55;7.40;;;230.60;2252.80;;;;;;5074559;28;20024;-76
2024/03/07 06:03:13;;;;;;;19.50;7.75;;;230.60;2252.80;;;;;;5079635;28;20033;-75
2024/03/07 06:05:42;;;;;;;8.55;6.10;;;230.50;2252.80;;;;;;5077541;28;20078;-72
2024/03/07 06:08:08;;;;;;;10.77;6.00;;;230.50;2252.80;;;;;;5070005;28;20525;-74
2024/03/07 06:10:34;;;;;;;8.73;6.05;;;230.50;2252.80;;;;;;5073480;28;20108;-73
2024/03/07 06:13:00;;;;;;;;;;;230.50;2252.80;;;;;;5071452;28;20032;-73
2024/03/07 06:15:25;;;;;;;10.98;5.82;;;230.40;2252.80;;;;;;5082050;28;19909;-74
2024/03/07 06:17:51;;;;;;;;;;;230.40;2252.80;;;;;;5068265;28;20541;-73
2024/03/07 06:20:22;;;;;;;10.38;5.38;;;230.40;2252.80;;;;;;5075278;28;19912;-75
2024/03/07 06:22:52;;;;;;;7.82;5.28;;;230.40;2252.80;;;;;;5065007;28;20060;-74
2024/03/07 06:25:33;;;;;;;7.40;4.88;;;230.40;2252.80;;;;;;5069114;28;20056;-74
2024/03/07 06:28:08;;;;;;;6.65;4.80;;;205.70;2252.80;;;;;;5079182;28;20055;-74
2024/03/07 06:30:38;;;;;;;6.65;4.53;;;205.70;2252.80;;;;;;5067516;28;20143;-76
2024/03/07 06:33:04;;;;;;;7.60;4.65;;;205.50;2252.80;;;;;;5073800;28;20036;-75
2024/03/07 06:35:29;;;;;;;8.07;4.88;;;205.60;2252.80;;;;;;5063462;28;20495;-76
2024/03/07 06:38:11;;;;;;;7.28;4.22;;;205.40;2252.80;;;;;;5078669;28;20470;-81
2024/03/07 06:40:40;;;;;;;8.15;4.65;;;205.50;2252.80;;;;;;5066700;28;20512;-80
2024/03/07 06:43:06;;;;;;;6.88;5.03;;;205.60;2252.80;;;;;;5062927;28;20029;-75
2024/03/07 06:45:36;;;;;;;7.85;5.28;;;205.50;2252.80;;;;;;5068755;28;20093;-75
2024/03/07 06:48:04;;;;;;;8.95;5.22;;;205.60;2252.80;;;;;;5067074;28;20028;-75
2024/03/07 06:50:30;;;;;;;9.85;5.85;;;205.70;2252.80;;;;;;5082726;28;20024;-73
2024/03/07 06:52:56;;;;;;;9.70;5.85;;;205.60;2252.80;;;;;;5072923;28;20493;-75
2024/03/07 06:55:22;;;;;;;9.00;5.10;;;205.60;2252.80;;;;;;5069396;28;20099;-80
2024/03/07 06:57:48;;;;;;;8.35;5.05;;;205.60;2252.80;;;;;;5072299;28;20028;-74
2024/03/07 07:00:21;;;;;;;8.45;5.07;;;205.60;2252.80;;;;;;5070733;28;20024;-73
2024/03/07 07:02:48;;;;;;;8.18;4.18;;;205.70;2252.80;;;;;;5068681;28;20039;-73
2024/03/07 07:05:18;;;;;;;6.85;4.78;;;205.70;2252.80;;;;;;5065004;28;20025;-76
2024/03/07 07:07:47;;;;;;;11.10;4.80;;;230.40;2252.80;;;;;;5061776;28;20484;-74
2024/03/07 07:10:23;;;;;;;8.73;5.90;;;205.70;2252.80;;;;;;5082804;28;20032;-75
2024/03/07 07:12:51;;;;;;;8.55;5.18;;;230.40;2252.80;;;;;;5079360;28;20111;-75
2024/03/07 07:15:18;;;;;;;6.95;5.10;;;230.80;2252.80;;;;;;5079967;28;20106;-74
2024/03/07 07:17:50;;;;;;;8.38;5.05;;;205.70;2252.80;;;;;;5077998;28;20119;-75
2024/03/07 07:20:17;;;;;;;7.93;4.67;;;205.60;2252.80;;;;;;5088592;28;20031;-75
2024/03/07 07:22:45;;;;;;;9.18;5.68;;;205.60;2227.20;;;;;;5068939;28;20036;-76
2024/03/07 07:25:14;;;;;;;9.75;5.80;;;205.70;2252.80;;;;;;5076607;28;20466;-74
2024/03/07 07:27:47;;;;;;;8.25;5.65;;;230.40;2252.80;;;;;;5071555;28;20374;-73
2024/03/07 07:30:15;;;;;;;10.55;6.90;;;230.40;2252.80;;;;;;5063172;28;20070;-74
2024/03/07 07:32:42;;;;;;;9.80;6.20;;;230.40;2252.80;;;;;;5068936;28;20116;-74
2024/03/07 07:35:12;;;;;;;10.35;6.25;;;230.40;2252.80;;;;;;5071832;28;20079;-75
2024/03/07 07:37:39;;;;;;;10.18;6.63;;;205.70;2252.80;;;;;;5076680;28;20053;-75
2024/03/07 07:40:12;;;;;;;9.88;6.00;;;205.70;2252.80;;;;;;5068858;28;20029;-74
2024/03/07 07:42:39;;;;;;;11.60;6.50;;;205.70;2252.80;;;;;;5074079;28;20507;-77
2024/03/07 07:45:15;;;;;;;9.38;6.60;;;205.60;2252.80;;;;;;5080811;28;20426;-75
2024/03/07 07:47:45;;;;;;;12.25;6.97;;;205.60;2252.80;;;;;;5078728;28;20019;-75
2024/03/07 07:50:13;;;;;;;12.93;7.45;;;205.70;2252.80;;;;;;5077563;28;20020;-74
2024/03/07 07:52:44;;;;;;;10.88;6.88;;;230.40;2252.80;;;;;;5075932;28;20024;-78
2024/03/07 07:55:14;;;;;;;11.05;6.25;;;230.50;2252.80;;;;;;5084799;28;20033;-76
2024/03/07 07:57:47;;;;;;;10.25;6.55;;;205.70;2252.80;;;;;;5080341;28;20029;-77
2024/03/07 08:00:22;;;;;;;12.25;7.07;;;205.70;2252.80;;;;;;5056319;28;20382;-77
2024/03/07 08:02:55;;;;;;;11.20;6.80;;;230.40;2252.80;;;;;;5069139;28;20096;-77
2024/03/07 08:05:23;;;;;;;9.98;7.28;;;230.40;2124.80;;;;;;5083678;28;20081;-78
2024/03/07 08:07:52;;;;;;;11.93;7.38;;;230.50;2252.80;;;;;;5070316;28;20514;-78
2024/03/07 08:10:20;;;;;;;14.45;7.78;;;230.40;2252.80;;;;;;5063693;28;20032;-76
2024/03/07 08:12:46;;;;;;;11.02;7.10;;;205.70;2252.80;;;;;;5072290;28;20138;-82
2024/03/07 08:15:15;;;;;;;11.10;7.15;;;205.70;2252.80;;;;;;5065229;28;20381;-77
2024/03/07 08:17:46;;;;;;;14.80;8.23;;;205.70;2252.80;;;;;;5059191;28;20021;-76
2024/03/07 08:20:17;;;;;;;11.40;6.55;;;205.70;2252.80;;;;;;5059647;28;20025;-75
2024/03/07 08:22:44;;;;;;;13.38;7.65;;;205.70;1894.40;;;;;;5074243;28;20035;-76
2024/03/07 08:25:12;;;;;;;12.45;7.22;;;205.70;2252.80;;;;;;5070421;28;20028;-75
2024/03/07 08:27:39;;;;;;;12.68;8.25;;;205.60;2252.80;;;;;;5078282;28;20482;-75
2024/03/07 08:30:06;;;;;;;12.15;7.47;;;205.70;2252.80;;;;;;5070806;28;20120;-75
2024/03/07 08:32:38;;;;;;;11.80;7.20;;;205.60;2252.80;;;;;;5083045;28;20082;-74
2024/03/07 08:35:09;;;;;;;12.13;6.93;;;205.60;2252.80;;;;;;5086200;28;20124;-74
2024/03/07 08:37:46;;;;;;;12.57;7.65;;;205.60;2252.80;;;;;;5072523;28;20028;-79
2024/03/07 08:40:19;;;;;;;13.63;8.00;;;205.60;2252.80;;;;;;5076508;28;20021;-76
2024/03/07 08:42:48;;;;;;;11.82;6.78;;;205.50;2252.80;;;;;;5072871;28;20039;-76
2024/03/07 08:45:18;;;;;;;10.95;6.43;;;205.60;2252.80;;;;;;5080009;28;20024;-77
2024/03/07 08:47:48;;;;;;;13.63;7.90;;;205.50;2252.80;;;;;;5074122;28;20020;-76
2024/03/07 08:50:17;;;;;;;11.68;7.18;;;205.50;1920.00;;;;;;5064673;28;20051;-75
2024/03/07 08:52:44;;;;;;;14.43;6.72;;;205.60;2252.80;;;;;;5078801;28;20045;-74
2024/03/07 08:55:12;;;;;;;8.88;6.28;;;205.50;2252.80;;;;;;5068078;28;20021;-74
2024/03/07 08:57:39;;;;;;;11.45;7.70;;;205.50;2252.80;;;;;;5072997;28;20013;-75
2024/03/07 09:00:08;;;;;;;11.85;7.50;;;205.40;2252.80;;;;;;5078976;28;20028;-75
2024/03/07 09:02:38;;;;;;;11.57;7.28;;;205.50;2252.80;;;;;;5088768;28;20037;-77
2024/03/07 09:05:05;;;;;;;11.63;6.65;;;205.40;2252.80;;;;;;5067346;28;20029;-75
2024/03/07 09:07:32;;;;;;;10.68;6.32;;;205.40;2201.60;;;;;;5075316;28;20020;-75
2024/03/07 09:09:58;;;;;;;12.50;7.55;;;205.40;2252.80;;;;;;5063500;28;20025;-77
2024/03/07 09:12:27;;;;;;;10.10;6.18;;;205.40;2252.80;;;;;;5061082;28;20044;-74
2024/03/07 09:14:55;;;;;;;9.98;6.78;;;205.60;2252.80;;;;;;5068212;28;20384;-74
2024/03/07 09:17:21;;;;;;;11.13;6.45;;;205.70;2252.80;;;;;;5078298;28;20017;-77
2024/03/07 09:19:47;;;;;;;9.63;6.47;;;205.60;2252.80;;;;;;5078306;28;20036;-76
2024/03/07 09:22:13;;;;;;;;;;;205.70;2252.80;;;;;;5077943;28;20028;-76
2024/03/07 09:24:38;;;;;;;11.25;4.90;;;205.60;2252.80;;;;;;5079508;28;19908;-73
2024/03/07 09:27:04;;;;;;;;;;;205.50;2252.80;;;;;;5069576;28;20051;-75
2024/03/07 09:29:30;;;;;;;9.25;5.80;;;205.40;2252.80;;;;;;5073267;28;19990;-75
2024/03/07 09:31:57;;;;;;;;;;;205.30;2227.20;;;;;;5074622;28;20461;-75
2024/03/07 09:34:24;;;;;;;8.77;4.57;;;205.40;2022.40;;;;;;5074875;28;20394;-75
2024/03/07 09:36:50;;;;;;;10.25;4.10;;;205.30;2252.80;;;;;;5066924;28;20033;-74
2024/03/07 09:39:16;;;;;;;6.18;3.85;;;205.20;1996.80;;;;;;5074601;28;20033;-74
2024/03/07 09:41:42;;;;;;;10.35;3.88;;;205.20;2176.00;;;;;;5064052;28;20099;-74
2024/03/07 09:44:22;;;;;;;7.03;4.25;;;205.20;2252.80;;;;;;5084911;28;20115;-75
2024/03/07 09:46:50;;;;;;;5.90;3.75;;;205.20;2227.20;;;;;;5071870;28;20056;-77
2024/03/07 09:49:17;;;;;;;6.35;3.95;;;205.20;2252.80;;;;;;5075792;28;20031;-77
2024/03/07 09:51:45;;;;;;;6.75;4.28;;;205.20;2252.80;;;;;;5071990;28;20386;-75
2024/03/07 09:54:13;;;;;;;6.03;4.30;;;205.20;2252.80;;;;;;5087575;28;20017;-76
2024/03/07 09:56:40;;;;;;;8.55;4.57;;;205.20;2252.80;;;;;;5077125;28;20020;-75
2024/03/07 09:59:13;;;;;;;8.00;4.68;;;205.30;2252.80;;;;;;5077098;28;20073;-73
2024/03/07 10:01:41;;;;;;;7.60;4.03;;;205.40;2252.80;;;;;;5077105;28;20462;-74
2024/03/07 10:04:12;;;;;;;6.82;3.95;;;205.30;2252.80;;;;;;5077293;28;20025;-73
2024/03/07 10:06:41;;;;;;;7.07;3.92;;;205.40;2252.80;;;;;;5061468;28;20048;-74
2024/03/07 10:09:07;;;;;;;6.05;3.95;;;205.50;2252.80;;;;;;5070430;28;20412;-74
2024/03/07 10:11:36;;;;;;;8.65;4.55;;;205.40;2252.80;;;;;;5074490;28;20016;-77
2024/03/07 10:14:04;;;;;;;9.07;3.97;;;205.60;2252.80;;;;;;5061471;28;20021;-75
2024/03/07 10:16:32;;;;;;;6.43;3.58;;;205.50;2252.80;;;;;;5062061;28;20025;-75
2024/03/07 10:19:00;;;;;;;6.40;3.30;;;205.50;2252.80;;;;;;5061674;28;20033;-75
2024/03/07 10:21:26;;;;;;;7.28;3.60;;;205.40;2252.80;;;;;;5062897;28;20028;-78
2024/03/07 10:24:06;;;;;;;6.05;4.20;;;205.40;2252.80;;;;;;5070252;28;20047;-74
2024/03/07 10:26:40;;;;;;;6.00;3.40;;;205.40;2252.80;;;;;;5073324;28;20029;-75
2024/03/07 10:29:07;;;;;;;5.63;3.58;;;205.30;2252.80;;;;;;5080177;28;20024;-75
2024/03/07 10:31:34;;;;;;;5.53;3.85;;;205.40;2252.80;;;;;;5067869;28;20029;-74
2024/03/07 10:34:04;;;;;;;6.90;3.20;;;205.50;2252.80;;;;;;5065299;28;20055;-75
2024/03/07 10:36:33;;;;;;;5.95;3.70;;;205.40;2252.80;;;;;;5078270;28;20020;-74
2024/03/07 10:39:13;;;;;;;6.32;3.88;;;205.40;2252.80;;;;;;5073047;28;20035;-76
2024/03/07 10:41:46;;;;;;;7.00;3.88;;;205.30;2252.80;;;;;;5061372;28;20033;-74
2024/03/07 10:44:25;;;;;;;6.35;3.80;;;205.50;2252.80;;;;;;5079154;28;20465;-75
2024/03/07 10:47:00;;;;;;;6.72;4.28;;;205.40;2252.80;;;;;;5066947;28;20029;-76
2024/03/07 10:49:28;;;;;;;8.52;4.57;;;205.60;2252.80;;;;;;5071472;28;20024;-75
2024/03/07 10:52:13;;;;;;;7.20;4.20;;;205.60;2252.80;;;;;;5064556;28;20021;-77
2024/03/07 10:54:46;;;;;;;10.48;5.90;;;205.50;2252.80;;;;;;5069497;28;20033;-74
2024/03/07 10:57:44;;;;;;;9.23;5.80;;;205.60;2252.80;;;;;;5072956;28;20028;-76
2024/03/07 11:00:29;;;;;;;11.00;7.32;;;205.70;2252.80;;;;;;5050548;28;20038;-75
2024/03/07 11:02:56;;;;;;;9.38;5.57;;;205.70;2252.80;;;;;;5028934;28;20072;-75
2024/03/07 11:05:31;;;;;;;7.90;5.38;;;205.70;2252.80;;;;;;5051704;28;20091;-76
2024/03/07 11:08:05;;;;;;;10.60;4.35;;;205.70;2252.80;;;;;;5034951;28;20406;-75
2024/03/07 11:10:31;;;;;;;8.10;4.18;;;205.70;2252.80;;;;;;5034840;28;20043;-78
2024/03/07 11:12:58;;;;;;;8.93;4.38;;;205.60;2252.80;;;;;;5051916;28;20037;-75
2024/03/07 11:15:27;;;;;;;8.57;5.05;;;205.70;2252.80;;;;;;5035005;28;20020;-75
2024/03/07 11:17:55;;;;;;;7.03;3.83;;;205.70;2252.80;;;;;;5051500;28;20045;-75
2024/03/07 11:20:25;;;;;;;6.43;4.22;;;205.60;2252.80;;;;;;5051733;28;20064;-76
2024/03/07 11:22:54;;;;;;;6.63;3.70;;;205.70;2252.80;;;;;;5051823;28;20033;-74
2024/03/07 11:25:21;;;;;;;10.00;4.47;;;205.70;2252.80;;;;;;5050783;28;20041;-74
2024/03/07 11:28:02;;;;;;;6.00;4.00;;;205.60;2252.80;;;;;;5051274;28;20025;-74
2024/03/07 11:30:27;;;;;;;7.63;4.65;;;205.60;2252.80;;;;;;5050992;28;20515;-76
2024/03/07 11:32:54;;;;;;;7.57;4.78;;;205.70;2252.80;;;;;;5033956;28;20049;-74
2024/03/07 11:35:27;;;;;;;8.07;5.00;;;230.40;2252.80;;;;;;5051388;28;20025;-75
2024/03/07 11:38:00;;;;;;;8.57;5.18;;;205.70;2252.80;;;;;;5061971;28;20040;-75
2024/03/07 11:40:48;;;;;;;7.18;5.10;;;205.60;2252.80;;;;;;5069433;28;20024;-74
2024/03/07 11:43:14;;;;;;;8.63;5.05;;;205.60;2252.80;;;;;;5068588;28;20017;-76
2024/03/07 11:45:44;;;;;;;9.30;6.63;;;205.60;2252.80;;;;;;5079583;28;20384;-76
2024/03/07 11:48:11;;;;;;;10.82;6.63;;;205.60;2252.80;;;;;;5061950;28;20071;-78
2024/03/07 11:50:41;;;;;;;8.82;6.10;;;205.60;2252.80;;;;;;5078441;28;20029;-76
2024/03/07 11:53:08;;;;;;;11.07;7.78;;;205.60;2252.80;;;;;;5072470;28;20021;-78
2024/03/07 11:55:45;;;;;;;8.75;6.03;;;205.50;2252.80;;;;;;5068786;28;20020;-79
2024/03/07 11:58:16;;;;;;;11.35;6.93;;;205.50;2252.80;;;;;;5079444;28;20114;-77
2024/03/07 12:00:46;;;;;;;12.68;6.60;;;205.60;2252.80;;;;;;5075426;28;20093;-75
2024/03/07 12:03:22;;;;;;;11.45;6.60;;;205.50;2252.80;;;;;;5075686;28;20060;-76
2024/03/07 12:05:51;;;;;;;9.50;6.38;;;205.50;2252.80;;;;;;5078121;28;20558;-74
2024/03/07 12:08:17;;;;;;;12.65;7.50;;;205.50;2252.80;;;;;;5071958;28;20043;-76
2024/03/07 12:10:44;;;;;;;13.52;8.55;;;205.50;2252.80;;;;;;5072712;28;20031;-78
2024/03/07 12:13:19;;;;;;;12.70;7.72;;;205.40;2252.80;;;;;;5075073;28;20036;-77
2024/03/07 12:15:46;;;;;;;11.07;7.45;;;205.40;2252.80;;;;;;5084066;28;20028;-77